Terminal Aerodrome Forecast
Issued by NWS

Home | Current Version | Previous Version | Text Only | Print | Product List | Glossary On
Versions: 1 2 3 4 5 6 7 8 9 10 11 12 13 14 15 16 17 18 19 20 21 22 23
818
FTUS43 KMQT 221120
TAFSAW
TAF
KSAW 221120Z 2212/2312 04008KT 3SM BR OVC002
     FM221900 04011G19KT 2SM -SN BR OVC003
     FM222300 04013G23KT 1/4SM +SN BLSN OVC008
     FM230600 03013G23KT 1SM -SN BLSN OVC008
     FM231000 02014G25KT 1 1/2SM -SN BLSN OVC008
     FM231100 01015G25KT 2SM -SN BLSN OVC010=

USA.gov is the U.S. government's official web portal to all federal, state and local government web resources and services.